sensor_id;sensor_type;location;lat;lon;timestamp;P1;durP1;ratioP1;P2;durP2;ratioP2
29314;SDS011;16320;53.954;9.506;2023-09-07T00:03:02;13.15;;;9.23;;
29314;SDS011;16320;53.954;9.506;2023-09-07T00:06:08;12.60;;;7.80;;
29314;SDS011;16320;53.954;9.506;2023-09-07T00:09:13;10.50;;;7.70;;
29314;SDS011;16320;53.954;9.506;2023-09-07T00:12:19;11.02;;;8.45;;
29314;SDS011;16320;53.954;9.506;2023-09-07T00:15:23;12.68;;;9.95;;
29314;SDS011;16320;53.954;9.506;2023-09-07T00:18:30;11.80;;;8.55;;
29314;SDS011;16320;53.954;9.506;2023-09-07T00:21:36;9.30;;;8.30;;
29314;SDS011;16320;53.954;9.506;2023-09-07T00:24:41;12.35;;;9.77;;
29314;SDS011;16320;53.954;9.506;2023-09-07T00:27:45;16.65;;;10.63;;
29314;SDS011;16320;53.954;9.506;2023-09-07T00:30:50;14.57;;;9.82;;
29314;SDS011;16320;53.954;9.506;2023-09-07T00:33:55;11.13;;;9.25;;
29314;SDS011;16320;53.954;9.506;2023-09-07T00:37:00;11.77;;;9.70;;
29314;SDS011;16320;53.954;9.506;2023-09-07T00:40:05;10.18;;;8.65;;
29314;SDS011;16320;53.954;9.506;2023-09-07T00:43:12;12.68;;;9.60;;
29314;SDS011;16320;53.954;9.506;2023-09-07T00:46:17;14.10;;;9.98;;
29314;SDS011;16320;53.954;9.506;2023-09-07T00:49:22;11.55;;;9.15;;
29314;SDS011;16320;53.954;9.506;2023-09-07T00:52:28;15.32;;;9.35;;
29314;SDS011;16320;53.954;9.506;2023-09-07T00:55:33;13.32;;;10.10;;
29314;SDS011;16320;53.954;9.506;2023-09-07T00:58:38;13.13;;;10.10;;
29314;SDS011;16320;53.954;9.506;2023-09-07T01:01:43;18.05;;;10.55;;
29314;SDS011;16320;53.954;9.506;2023-09-07T01:04:47;15.77;;;9.68;;
29314;SDS011;16320;53.954;9.506;2023-09-07T01:07:53;11.65;;;9.98;;
29314;SDS011;16320;53.954;9.506;2023-09-07T01:11:17;16.63;;;10.30;;
29314;SDS011;16320;53.954;9.506;2023-09-07T01:14:30;14.80;;;9.82;;
29314;SDS011;16320;53.954;9.506;2023-09-07T01:17:34;14.90;;;11.13;;
29314;SDS011;16320;53.954;9.506;2023-09-07T01:20:40;14.70;;;10.57;;
29314;SDS011;16320;53.954;9.506;2023-09-07T01:23:46;13.07;;;11.45;;
29314;SDS011;16320;53.954;9.506;2023-09-07T01:26:52;15.65;;;10.90;;
29314;SDS011;16320;53.954;9.506;2023-09-07T01:29:57;15.82;;;10.07;;
29314;SDS011;16320;53.954;9.506;2023-09-07T01:33:01;19.05;;;11.02;;
29314;SDS011;16320;53.954;9.506;2023-09-07T01:36:07;15.80;;;11.90;;
29314;SDS011;16320;53.954;9.506;2023-09-07T01:39:11;17.02;;;13.82;;
29314;SDS011;16320;53.954;9.506;2023-09-07T01:42:16;16.88;;;13.02;;
29314;SDS011;16320;53.954;9.506;2023-09-07T01:45:20;15.57;;;12.10;;
29314;SDS011;16320;53.954;9.506;2023-09-07T01:48:26;14.98;;;11.50;;
29314;SDS011;16320;53.954;9.506;2023-09-07T01:51:31;14.13;;;12.15;;
29314;SDS011;16320;53.954;9.506;2023-09-07T01:54:35;16.55;;;12.20;;
29314;SDS011;16320;53.954;9.506;2023-09-07T01:57:40;16.17;;;11.40;;
29314;SDS011;16320;53.954;9.506;2023-09-07T02:00:44;20.10;;;12.20;;
29314;SDS011;16320;53.954;9.506;2023-09-07T02:03:49;17.70;;;12.98;;
29314;SDS011;16320;53.954;9.506;2023-09-07T02:06:54;14.35;;;12.43;;
29314;SDS011;16320;53.954;9.506;2023-09-07T02:09:58;22.75;;;12.38;;
29314;SDS011;16320;53.954;9.506;2023-09-07T02:13:03;17.13;;;13.02;;
29314;SDS011;16320;53.954;9.506;2023-09-07T02:16:07;18.42;;;13.18;;
29314;SDS011;16320;53.954;9.506;2023-09-07T02:19:13;20.95;;;14.73;;
29314;SDS011;16320;53.954;9.506;2023-09-07T02:22:17;15.95;;;12.80;;
29314;SDS011;16320;53.954;9.506;2023-09-07T02:25:21;15.50;;;13.05;;
29314;SDS011;16320;53.954;9.506;2023-09-07T02:28:26;21.00;;;14.40;;
29314;SDS011;16320;53.954;9.506;2023-09-07T02:31:32;14.70;;;12.20;;
29314;SDS011;16320;53.954;9.506;2023-09-07T02:34:37;16.50;;;12.27;;
29314;SDS011;16320;53.954;9.506;2023-09-07T02:37:41;16.30;;;11.93;;
29314;SDS011;16320;53.954;9.506;2023-09-07T02:40:46;15.38;;;12.23;;
29314;SDS011;16320;53.954;9.506;2023-09-07T02:43:50;15.38;;;13.40;;
29314;SDS011;16320;53.954;9.506;2023-09-07T02:46:55;17.00;;;13.70;;
29314;SDS011;16320;53.954;9.506;2023-09-07T02:50:00;16.63;;;12.90;;
29314;SDS011;16320;53.954;9.506;2023-09-07T02:53:05;17.70;;;13.20;;
29314;SDS011;16320;53.954;9.506;2023-09-07T02:56:09;18.23;;;14.27;;
29314;SDS011;16320;53.954;9.506;2023-09-07T02:59:14;18.17;;;14.65;;
29314;SDS011;16320;53.954;9.506;2023-09-07T03:02:20;17.15;;;14.65;;
29314;SDS011;16320;53.954;9.506;2023-09-07T03:05:26;17.15;;;13.27;;
29314;SDS011;16320;53.954;9.506;2023-09-07T03:08:34;16.30;;;12.57;;
29314;SDS011;16320;53.954;9.506;2023-09-07T03:11:38;17.40;;;13.25;;
29314;SDS011;16320;53.954;9.506;2023-09-07T03:14:43;17.83;;;13.05;;
29314;SDS011;16320;53.954;9.506;2023-09-07T03:17:48;17.77;;;12.82;;
29314;SDS011;16320;53.954;9.506;2023-09-07T03:20:53;20.45;;;13.70;;
29314;SDS011;16320;53.954;9.506;2023-09-07T03:24:02;20.88;;;14.65;;
29314;SDS011;16320;53.954;9.506;2023-09-07T03:27:07;17.20;;;13.65;;
29314;SDS011;16320;53.954;9.506;2023-09-07T03:30:11;20.70;;;15.27;;
29314;SDS011;16320;53.954;9.506;2023-09-07T03:33:16;15.40;;;13.18;;
29314;SDS011;16320;53.954;9.506;2023-09-07T03:36:20;21.15;;;13.32;;
29314;SDS011;16320;53.954;9.506;2023-09-07T03:39:25;17.13;;;12.95;;
29314;SDS011;16320;53.954;9.506;2023-09-07T03:42:30;20.50;;;14.38;;
29314;SDS011;16320;53.954;9.506;2023-09-07T03:45:36;16.40;;;13.63;;
29314;SDS011;16320;53.954;9.506;2023-09-07T03:48:41;16.60;;;14.80;;
29314;SDS011;16320;53.954;9.506;2023-09-07T03:51:45;19.35;;;14.15;;
29314;SDS011;16320;53.954;9.506;2023-09-07T03:54:50;20.75;;;15.07;;
29314;SDS011;16320;53.954;9.506;2023-09-07T03:57:56;19.63;;;14.65;;
29314;SDS011;16320;53.954;9.506;2023-09-07T04:01:00;28.13;;;13.70;;
29314;SDS011;16320;53.954;9.506;2023-09-07T04:04:05;16.23;;;13.35;;
29314;SDS011;16320;53.954;9.506;2023-09-07T04:07:10;18.63;;;15.30;;
29314;SDS011;16320;53.954;9.506;2023-09-07T04:10:14;16.67;;;13.32;;
29314;SDS011;16320;53.954;9.506;2023-09-07T04:13:19;15.52;;;13.40;;
29314;SDS011;16320;53.954;9.506;2023-09-07T04:16:24;15.82;;;13.23;;
29314;SDS011;16320;53.954;9.506;2023-09-07T04:19:28;15.73;;;13.88;;
29314;SDS011;16320;53.954;9.506;2023-09-07T04:22:33;16.85;;;14.15;;
29314;SDS011;16320;53.954;9.506;2023-09-07T04:25:37;15.25;;;12.77;;
29314;SDS011;16320;53.954;9.506;2023-09-07T04:28:44;14.93;;;13.15;;
29314;SDS011;16320;53.954;9.506;2023-09-07T04:31:49;17.98;;;13.85;;
29314;SDS011;16320;53.954;9.506;2023-09-07T04:34:54;17.08;;;14.57;;
29314;SDS011;16320;53.954;9.506;2023-09-07T04:38:00;23.83;;;15.27;;
29314;SDS011;16320;53.954;9.506;2023-09-07T04:41:05;19.25;;;15.45;;
29314;SDS011;16320;53.954;9.506;2023-09-07T04:44:15;17.67;;;15.57;;
29314;SDS011;16320;53.954;9.506;2023-09-07T04:47:19;18.58;;;14.57;;
29314;SDS011;16320;53.954;9.506;2023-09-07T04:50:24;16.50;;;14.07;;
29314;SDS011;16320;53.954;9.506;2023-09-07T04:53:30;16.88;;;15.07;;
29314;SDS011;16320;53.954;9.506;2023-09-07T04:56:37;18.02;;;14.57;;
29314;SDS011;16320;53.954;9.506;2023-09-07T04:59:41;16.30;;;14.15;;
29314;SDS011;16320;53.954;9.506;2023-09-07T05:02:46;19.88;;;14.57;;
29314;SDS011;16320;53.954;9.506;2023-09-07T05:05:52;20.50;;;14.52;;
29314;SDS011;16320;53.954;9.506;2023-09-07T05:08:57;19.15;;;14.27;;
29314;SDS011;16320;53.954;9.506;2023-09-07T05:12:02;18.08;;;14.88;;
29314;SDS011;16320;53.954;9.506;2023-09-07T05:15:07;16.67;;;14.75;;
29314;SDS011;16320;53.954;9.506;2023-09-07T05:18:12;19.38;;;15.35;;
29314;SDS011;16320;53.954;9.506;2023-09-07T05:21:16;17.83;;;15.13;;
29314;SDS011;16320;53.954;9.506;2023-09-07T05:24:21;19.20;;;15.45;;
29314;SDS011;16320;53.954;9.506;2023-09-07T05:27:26;16.90;;;14.73;;
29314;SDS011;16320;53.954;9.506;2023-09-07T05:30:31;19.15;;;14.63;;
29314;SDS011;16320;53.954;9.506;2023-09-07T05:33:35;16.13;;;13.05;;
29314;SDS011;16320;53.954;9.506;2023-09-07T05:36:40;24.67;;;15.23;;
29314;SDS011;16320;53.954;9.506;2023-09-07T05:39:44;19.90;;;15.15;;
29314;SDS011;16320;53.954;9.506;2023-09-07T05:42:49;15.35;;;12.85;;
29314;SDS011;16320;53.954;9.506;2023-09-07T05:45:53;15.02;;;13.52;;
29314;SDS011;16320;53.954;9.506;2023-09-07T05:48:57;17.30;;;13.85;;
29314;SDS011;16320;53.954;9.506;2023-09-07T05:52:02;19.15;;;13.68;;
29314;SDS011;16320;53.954;9.506;2023-09-07T05:55:10;18.30;;;14.18;;
29314;SDS011;16320;53.954;9.506;2023-09-07T05:58:14;19.63;;;14.73;;
29314;SDS011;16320;53.954;9.506;2023-09-07T06:01:19;17.23;;;13.90;;
29314;SDS011;16320;53.954;9.506;2023-09-07T06:04:24;14.38;;;12.65;;
29314;SDS011;16320;53.954;9.506;2023-09-07T06:07:28;21.77;;;14.38;;
29314;SDS011;16320;53.954;9.506;2023-09-07T06:10:33;15.20;;;13.15;;
29314;SDS011;16320;53.954;9.506;2023-09-07T06:13:37;15.68;;;12.93;;
29314;SDS011;16320;53.954;9.506;2023-09-07T06:16:42;13.02;;;11.63;;
29314;SDS011;16320;53.954;9.506;2023-09-07T06:19:46;17.10;;;12.93;;
29314;SDS011;16320;53.954;9.506;2023-09-07T06:22:51;16.40;;;12.52;;
29314;SDS011;16320;53.954;9.506;2023-09-07T06:25:56;14.68;;;11.50;;
29314;SDS011;16320;53.954;9.506;2023-09-07T06:29:00;14.45;;;12.90;;
29314;SDS011;16320;53.954;9.506;2023-09-07T06:32:05;14.50;;;11.50;;
29314;SDS011;16320;53.954;9.506;2023-09-07T06:35:09;13.13;;;11.30;;
29314;SDS011;16320;53.954;9.506;2023-09-07T06:38:13;12.18;;;10.98;;
29314;SDS011;16320;53.954;9.506;2023-09-07T06:41:18;13.68;;;12.07;;
29314;SDS011;16320;53.954;9.506;2023-09-07T06:44:22;16.70;;;11.85;;
29314;SDS011;16320;53.954;9.506;2023-09-07T06:47:27;14.55;;;10.70;;
29314;SDS011;16320;53.954;9.506;2023-09-07T06:50:34;12.77;;;10.57;;
29314;SDS011;16320;53.954;9.506;2023-09-07T06:53:39;10.30;;;9.15;;
29314;SDS011;16320;53.954;9.506;2023-09-07T06:57:00;12.55;;;9.27;;
29314;SDS011;16320;53.954;9.506;2023-09-07T07:00:04;12.85;;;9.68;;
29314;SDS011;16320;53.954;9.506;2023-09-07T07:03:10;10.20;;;9.20;;
29314;SDS011;16320;53.954;9.506;2023-09-07T07:06:15;12.00;;;9.88;;
29314;SDS011;16320;53.954;9.506;2023-09-07T07:09:19;11.10;;;9.02;;
29314;SDS011;16320;53.954;9.506;2023-09-07T07:12:24;10.35;;;8.13;;
29314;SDS011;16320;53.954;9.506;2023-09-07T07:15:30;11.23;;;8.65;;
29314;SDS011;16320;53.954;9.506;2023-09-07T07:18:34;10.02;;;7.85;;
29314;SDS011;16320;53.954;9.506;2023-09-07T07:21:38;11.32;;;8.20;;
29314;SDS011;16320;53.954;9.506;2023-09-07T07:24:43;11.32;;;8.65;;
29314;SDS011;16320;53.954;9.506;2023-09-07T07:27:47;11.05;;;8.23;;
29314;SDS011;16320;53.954;9.506;2023-09-07T07:30:51;11.02;;;8.85;;
29314;SDS011;16320;53.954;9.506;2023-09-07T07:33:57;9.38;;;8.48;;
29314;SDS011;16320;53.954;9.506;2023-09-07T07:37:02;13.30;;;8.57;;
29314;SDS011;16320;53.954;9.506;2023-09-07T07:40:07;10.00;;;7.85;;
29314;SDS011;16320;53.954;9.506;2023-09-07T07:43:12;10.32;;;7.60;;
29314;SDS011;16320;53.954;9.506;2023-09-07T07:46:17;13.82;;;9.27;;
29314;SDS011;16320;53.954;9.506;2023-09-07T07:49:24;10.32;;;7.60;;
29314;SDS011;16320;53.954;9.506;2023-09-07T07:52:28;10.10;;;7.10;;
29314;SDS011;16320;53.954;9.506;2023-09-07T07:55:36;11.98;;;7.28;;
29314;SDS011;16320;53.954;9.506;2023-09-07T07:58:42;8.02;;;6.88;;
29314;SDS011;16320;53.954;9.506;2023-09-07T08:01:46;9.48;;;7.05;;
29314;SDS011;16320;53.954;9.506;2023-09-07T08:04:51;7.65;;;6.72;;
29314;SDS011;16320;53.954;9.506;2023-09-07T08:07:56;8.15;;;6.88;;
29314;SDS011;16320;53.954;9.506;2023-09-07T08:11:00;8.32;;;7.53;;
29314;SDS011;16320;53.954;9.506;2023-09-07T08:14:09;8.48;;;6.47;;
29314;SDS011;16320;53.954;9.506;2023-09-07T08:17:14;7.95;;;6.97;;
29314;SDS011;16320;53.954;9.506;2023-09-07T08:20:19;9.15;;;6.65;;
29314;SDS011;16320;53.954;9.506;2023-09-07T08:23:24;7.22;;;6.53;;
29314;SDS011;16320;53.954;9.506;2023-09-07T08:26:28;8.88;;;7.43;;
29314;SDS011;16320;53.954;9.506;2023-09-07T08:29:32;8.68;;;6.63;;
29314;SDS011;16320;53.954;9.506;2023-09-07T08:32:37;8.18;;;6.57;;
29314;SDS011;16320;53.954;9.506;2023-09-07T08:35:42;7.50;;;5.90;;
29314;SDS011;16320;53.954;9.506;2023-09-07T08:38:47;8.45;;;5.57;;
29314;SDS011;16320;53.954;9.506;2023-09-07T08:41:54;8.98;;;6.25;;
29314;SDS011;16320;53.954;9.506;2023-09-07T08:45:05;6.68;;;5.60;;
29314;SDS011;16320;53.954;9.506;2023-09-07T08:48:15;5.68;;;5.18;;
29314;SDS011;16320;53.954;9.506;2023-09-07T08:51:22;8.98;;;6.50;;
29314;SDS011;16320;53.954;9.506;2023-09-07T08:54:32;7.28;;;6.10;;
29314;SDS011;16320;53.954;9.506;2023-09-07T08:57:38;7.50;;;6.30;;
29314;SDS011;16320;53.954;9.506;2023-09-07T09:00:43;7.55;;;5.68;;
29314;SDS011;16320;53.954;9.506;2023-09-07T09:03:48;7.40;;;5.53;;
29314;SDS011;16320;53.954;9.506;2023-09-07T09:06:54;6.90;;;5.30;;
29314;SDS011;16320;53.954;9.506;2023-09-07T09:10:02;6.55;;;5.38;;
29314;SDS011;16320;53.954;9.506;2023-09-07T09:13:12;8.20;;;5.10;;
29314;SDS011;16320;53.954;9.506;2023-09-07T09:16:17;8.60;;;5.68;;
29314;SDS011;16320;53.954;9.506;2023-09-07T09:19:30;7.32;;;6.00;;
29314;SDS011;16320;53.954;9.506;2023-09-07T09:22:38;9.60;;;5.22;;
29314;SDS011;16320;53.954;9.506;2023-09-07T09:25:42;9.80;;;5.93;;
29314;SDS011;16320;53.954;9.506;2023-09-07T09:28:47;6.57;;;5.68;;
29314;SDS011;16320;53.954;9.506;2023-09-07T09:31:54;7.28;;;5.55;;
29314;SDS011;16320;53.954;9.506;2023-09-07T09:34:59;6.03;;;5.15;;
29314;SDS011;16320;53.954;9.506;2023-09-07T09:38:04;6.28;;;5.38;;
29314;SDS011;16320;53.954;9.506;2023-09-07T09:41:08;6.55;;;5.53;;
29314;SDS011;16320;53.954;9.506;2023-09-07T09:44:15;7.78;;;5.60;;
29314;SDS011;16320;53.954;9.506;2023-09-07T09:47:21;8.35;;;5.78;;
29314;SDS011;16320;53.954;9.506;2023-09-07T09:50:26;6.85;;;5.57;;
29314;SDS011;16320;53.954;9.506;2023-09-07T09:53:31;6.63;;;5.10;;
29314;SDS011;16320;53.954;9.506;2023-09-07T09:56:37;6.25;;;5.25;;
29314;SDS011;16320;53.954;9.506;2023-09-07T09:59:42;6.18;;;5.57;;
29314;SDS011;16320;53.954;9.506;2023-09-07T10:02:49;8.40;;;5.53;;
29314;SDS011;16320;53.954;9.506;2023-09-07T10:06:19;6.53;;;4.93;;
29314;SDS011;16320;53.954;9.506;2023-09-07T10:09:34;9.23;;;5.38;;
29314;SDS011;16320;53.954;9.506;2023-09-07T10:12:41;9.38;;;5.50;;
29314;SDS011;16320;53.954;9.506;2023-09-07T10:16:06;5.28;;;4.78;;
29314;SDS011;16320;53.954;9.506;2023-09-07T10:19:13;6.38;;;4.68;;
29314;SDS011;16320;53.954;9.506;2023-09-07T10:22:23;9.00;;;5.43;;
29314;SDS011;16320;53.954;9.506;2023-09-07T10:25:29;7.45;;;4.75;;
29314;SDS011;16320;53.954;9.506;2023-09-07T10:28:35;8.07;;;5.28;;
29314;SDS011;16320;53.954;9.506;2023-09-07T10:31:39;6.93;;;5.07;;
29314;SDS011;16320;53.954;9.506;2023-09-07T10:34:59;6.60;;;5.05;;
29314;SDS011;16320;53.954;9.506;2023-09-07T10:38:03;5.85;;;4.38;;
29314;SDS011;16320;53.954;9.506;2023-09-07T10:41:09;5.35;;;4.82;;
29314;SDS011;16320;53.954;9.506;2023-09-07T10:44:13;6.35;;;5.13;;
29314;SDS011;16320;53.954;9.506;2023-09-07T10:47:18;4.95;;;4.40;;
29314;SDS011;16320;53.954;9.506;2023-09-07T10:50:22;8.20;;;4.75;;
29314;SDS011;16320;53.954;9.506;2023-09-07T10:53:28;6.20;;;4.45;;
29314;SDS011;16320;53.954;9.506;2023-09-07T10:56:35;5.95;;;4.18;;
29314;SDS011;16320;53.954;9.506;2023-09-07T10:59:46;4.72;;;4.30;;
29314;SDS011;16320;53.954;9.506;2023-09-07T11:02:51;8.32;;;4.57;;
29314;SDS011;16320;53.954;9.506;2023-09-07T11:06:00;7.75;;;4.60;;
29314;SDS011;16320;53.954;9.506;2023-09-07T11:09:29;7.93;;;4.40;;
29314;SDS011;16320;53.954;9.506;2023-09-07T11:12:36;8.27;;;3.97;;
29314;SDS011;16320;53.954;9.506;2023-09-07T11:15:43;4.47;;;3.83;;
29314;SDS011;16320;53.954;9.506;2023-09-07T11:18:48;6.78;;;4.40;;
29314;SDS011;16320;53.954;9.506;2023-09-07T11:21:55;4.78;;;4.20;;
29314;SDS011;16320;53.954;9.506;2023-09-07T11:24:59;10.68;;;4.03;;
29314;SDS011;16320;53.954;9.506;2023-09-07T11:28:04;4.55;;;3.72;;
29314;SDS011;16320;53.954;9.506;2023-09-07T11:31:10;7.78;;;4.40;;
29314;SDS011;16320;53.954;9.506;2023-09-07T11:34:15;5.50;;;4.15;;
29314;SDS011;16320;53.954;9.506;2023-09-07T11:37:22;6.43;;;4.85;;
29314;SDS011;16320;53.954;9.506;2023-09-07T11:40:29;5.82;;;4.10;;
29314;SDS011;16320;53.954;9.506;2023-09-07T11:43:34;9.00;;;4.10;;
29314;SDS011;16320;53.954;9.506;2023-09-07T11:46:39;4.38;;;3.97;;
29314;SDS011;16320;53.954;9.506;2023-09-07T11:49:44;6.10;;;4.05;;
29314;SDS011;16320;53.954;9.506;2023-09-07T11:52:48;5.68;;;3.65;;
29314;SDS011;16320;53.954;9.506;2023-09-07T11:55:55;6.03;;;3.67;;
29314;SDS011;16320;53.954;9.506;2023-09-07T11:59:00;5.43;;;4.25;;
29314;SDS011;16320;53.954;9.506;2023-09-07T12:02:05;10.55;;;3.65;;
29314;SDS011;16320;53.954;9.506;2023-09-07T12:05:10;4.47;;;3.88;;
29314;SDS011;16320;53.954;9.506;2023-09-07T12:08:18;5.45;;;4.38;;
29314;SDS011;16320;53.954;9.506;2023-09-07T12:11:22;4.43;;;4.03;;
29314;SDS011;16320;53.954;9.506;2023-09-07T12:14:27;5.63;;;3.53;;
29314;SDS011;16320;53.954;9.506;2023-09-07T12:17:31;6.50;;;3.35;;
29314;SDS011;16320;53.954;9.506;2023-09-07T12:20:37;6.13;;;3.75;;
29314;SDS011;16320;53.954;9.506;2023-09-07T12:23:42;6.78;;;4.18;;
29314;SDS011;16320;53.954;9.506;2023-09-07T12:26:46;14.13;;;4.15;;
29314;SDS011;16320;53.954;9.506;2023-09-07T12:29:51;6.97;;;4.00;;
29314;SDS011;16320;53.954;9.506;2023-09-07T12:32:55;6.03;;;4.18;;
29314;SDS011;16320;53.954;9.506;2023-09-07T12:36:00;6.57;;;3.92;;
29314;SDS011;16320;53.954;9.506;2023-09-07T12:39:05;6.35;;;4.00;;
29314;SDS011;16320;53.954;9.506;2023-09-07T12:42:09;7.10;;;4.00;;
29314;SDS011;16320;53.954;9.506;2023-09-07T12:45:14;3.92;;;3.53;;
29314;SDS011;16320;53.954;9.506;2023-09-07T12:48:19;4.97;;;3.40;;
29314;SDS011;16320;53.954;9.506;2023-09-07T12:51:24;6.38;;;3.92;;
29314;SDS011;16320;53.954;9.506;2023-09-07T12:54:28;3.35;;;3.05;;
29314;SDS011;16320;53.954;9.506;2023-09-07T12:57:33;5.32;;;2.83;;
29314;SDS011;16320;53.954;9.506;2023-09-07T13:00:40;4.38;;;3.47;;
29314;SDS011;16320;53.954;9.506;2023-09-07T13:03:44;4.35;;;3.20;;
29314;SDS011;16320;53.954;9.506;2023-09-07T13:06:49;6.00;;;3.00;;
29314;SDS011;16320;53.954;9.506;2023-09-07T13:09:54;7.90;;;3.15;;
29314;SDS011;16320;53.954;9.506;2023-09-07T13:12:58;3.70;;;3.33;;
29314;SDS011;16320;53.954;9.506;2023-09-07T13:16:03;5.50;;;3.20;;
29314;SDS011;16320;53.954;9.506;2023-09-07T13:19:08;4.15;;;3.75;;
29314;SDS011;16320;53.954;9.506;2023-09-07T13:22:14;7.22;;;2.80;;
29314;SDS011;16320;53.954;9.506;2023-09-07T13:25:18;4.95;;;2.63;;
29314;SDS011;16320;53.954;9.506;2023-09-07T13:28:23;5.00;;;2.75;;
29314;SDS011;16320;53.954;9.506;2023-09-07T13:31:28;6.28;;;3.05;;
29314;SDS011;16320;53.954;9.506;2023-09-07T13:34:32;3.90;;;2.70;;
29314;SDS011;16320;53.954;9.506;2023-09-07T13:37:37;3.60;;;3.13;;
29314;SDS011;16320;53.954;9.506;2023-09-07T13:40:41;3.35;;;2.70;;
29314;SDS011;16320;53.954;9.506;2023-09-07T13:43:46;5.32;;;2.78;;
29314;SDS011;16320;53.954;9.506;2023-09-07T13:46:51;4.20;;;2.60;;
29314;SDS011;16320;53.954;9.506;2023-09-07T13:49:57;5.63;;;2.30;;
29314;SDS011;16320;53.954;9.506;2023-09-07T13:53:02;2.90;;;2.60;;
29314;SDS011;16320;53.954;9.506;2023-09-07T13:56:07;6.03;;;2.58;;
29314;SDS011;16320;53.954;9.506;2023-09-07T13:59:11;16.13;;;3.67;;
29314;SDS011;16320;53.954;9.506;2023-09-07T14:02:16;4.38;;;2.80;;
29314;SDS011;16320;53.954;9.506;2023-09-07T14:05:20;3.35;;;3.03;;
29314;SDS011;16320;53.954;9.506;2023-09-07T14:08:25;4.30;;;2.85;;
29314;SDS011;16320;53.954;9.506;2023-09-07T14:11:29;8.10;;;2.95;;
29314;SDS011;16320;53.954;9.506;2023-09-07T14:14:34;3.53;;;2.33;;
29314;SDS011;16320;53.954;9.506;2023-09-07T14:17:40;3.47;;;2.40;;
29314;SDS011;16320;53.954;9.506;2023-09-07T14:20:44;3.78;;;2.75;;
29314;SDS011;16320;53.954;9.506;2023-09-07T14:23:49;4.47;;;2.35;;
29314;SDS011;16320;53.954;9.506;2023-09-07T14:26:53;5.32;;;2.67;;
29314;SDS011;16320;53.954;9.506;2023-09-07T14:29:58;3.45;;;2.63;;
29314;SDS011;16320;53.954;9.506;2023-09-07T14:33:02;4.53;;;2.45;;
29314;SDS011;16320;53.954;9.506;2023-09-07T14:36:09;5.43;;;2.53;;
29314;SDS011;16320;53.954;9.506;2023-09-07T14:39:13;2.90;;;2.42;;
29314;SDS011;16320;53.954;9.506;2023-09-07T14:42:18;3.70;;;2.60;;
29314;SDS011;16320;53.954;9.506;2023-09-07T14:45:24;6.05;;;2.63;;
29314;SDS011;16320;53.954;9.506;2023-09-07T14:48:28;4.30;;;3.15;;
29314;SDS011;16320;53.954;9.506;2023-09-07T14:51:33;5.00;;;2.85;;
29314;SDS011;16320;53.954;9.506;2023-09-07T14:54:37;8.80;;;3.03;;
29314;SDS011;16320;53.954;9.506;2023-09-07T14:57:45;5.43;;;2.95;;
29314;SDS011;16320;53.954;9.506;2023-09-07T15:00:50;4.90;;;3.20;;
29314;SDS011;16320;53.954;9.506;2023-09-07T15:03:54;7.45;;;3.20;;
29314;SDS011;16320;53.954;9.506;2023-09-07T15:07:00;4.78;;;3.03;;
29314;SDS011;16320;53.954;9.506;2023-09-07T15:10:05;5.57;;;2.67;;
29314;SDS011;16320;53.954;9.506;2023-09-07T15:13:11;6.95;;;2.80;;
29314;SDS011;16320;53.954;9.506;2023-09-07T15:16:15;4.22;;;2.63;;
29314;SDS011;16320;53.954;9.506;2023-09-07T15:19:19;3.42;;;3.00;;
29314;SDS011;16320;53.954;9.506;2023-09-07T15:22:23;5.00;;;2.95;;
29314;SDS011;16320;53.954;9.506;2023-09-07T15:25:28;3.95;;;3.08;;
29314;SDS011;16320;53.954;9.506;2023-09-07T15:28:33;6.30;;;3.22;;
29314;SDS011;16320;53.954;9.506;2023-09-07T15:31:40;3.15;;;2.75;;
29314;SDS011;16320;53.954;9.506;2023-09-07T15:34:45;3.63;;;3.22;;
29314;SDS011;16320;53.954;9.506;2023-09-07T15:37:50;4.43;;;3.22;;
29314;SDS011;16320;53.954;9.506;2023-09-07T15:40:54;7.05;;;3.70;;
29314;SDS011;16320;53.954;9.506;2023-09-07T15:43:59;5.10;;;3.28;;
29314;SDS011;16320;53.954;9.506;2023-09-07T15:47:03;4.07;;;3.33;;
29314;SDS011;16320;53.954;9.506;2023-09-07T15:50:10;4.13;;;3.00;;
29314;SDS011;16320;53.954;9.506;2023-09-07T15:53:15;4.80;;;3.33;;
29314;SDS011;16320;53.954;9.506;2023-09-07T15:56:20;4.57;;;3.67;;
29314;SDS011;16320;53.954;9.506;2023-09-07T15:59:25;8.95;;;3.25;;
29314;SDS011;16320;53.954;9.506;2023-09-07T16:02:29;7.03;;;3.58;;
29314;SDS011;16320;53.954;9.506;2023-09-07T16:05:34;5.10;;;3.40;;
29314;SDS011;16320;53.954;9.506;2023-09-07T16:08:39;3.80;;;3.22;;
29314;SDS011;16320;53.954;9.506;2023-09-07T16:11:44;6.43;;;3.53;;
29314;SDS011;16320;53.954;9.506;2023-09-07T16:14:49;8.57;;;3.97;;
29314;SDS011;16320;53.954;9.506;2023-09-07T16:17:53;14.68;;;6.32;;
29314;SDS011;16320;53.954;9.506;2023-09-07T16:20:58;9.70;;;5.07;;
29314;SDS011;16320;53.954;9.506;2023-09-07T16:24:02;7.72;;;3.60;;
29314;SDS011;16320;53.954;9.506;2023-09-07T16:27:07;7.07;;;3.78;;
29314;SDS011;16320;53.954;9.506;2023-09-07T16:30:12;8.00;;;3.75;;
29314;SDS011;16320;53.954;9.506;2023-09-07T16:33:17;7.95;;;4.25;;
29314;SDS011;16320;53.954;9.506;2023-09-07T16:36:23;6.05;;;3.55;;
29314;SDS011;16320;53.954;9.506;2023-09-07T16:39:28;5.20;;;3.90;;
29314;SDS011;16320;53.954;9.506;2023-09-07T16:42:37;5.45;;;4.18;;
29314;SDS011;16320;53.954;9.506;2023-09-07T16:45:42;10.85;;;5.60;;
29314;SDS011;16320;53.954;9.506;2023-09-07T16:48:46;6.68;;;4.72;;
29314;SDS011;16320;53.954;9.506;2023-09-07T16:51:52;8.13;;;5.18;;
29314;SDS011;16320;53.954;9.506;2023-09-07T16:54:57;9.00;;;4.60;;
29314;SDS011;16320;53.954;9.506;2023-09-07T16:58:02;9.75;;;5.43;;
29314;SDS011;16320;53.954;9.506;2023-09-07T17:01:08;10.10;;;4.97;;
29314;SDS011;16320;53.954;9.506;2023-09-07T17:04:13;9.32;;;5.63;;
29314;SDS011;16320;53.954;9.506;2023-09-07T17:07:27;9.32;;;5.57;;
29314;SDS011;16320;53.954;9.506;2023-09-07T17:10:32;9.00;;;5.63;;
29314;SDS011;16320;53.954;9.506;2023-09-07T17:13:38;11.13;;;5.80;;
29314;SDS011;16320;53.954;9.506;2023-09-07T17:16:58;7.40;;;6.00;;
29314;SDS011;16320;53.954;9.506;2023-09-07T17:20:03;8.25;;;6.20;;
29314;SDS011;16320;53.954;9.506;2023-09-07T17:23:09;12.68;;;6.35;;
29314;SDS011;16320;53.954;9.506;2023-09-07T17:26:14;7.60;;;6.07;;
29314;SDS011;16320;53.954;9.506;2023-09-07T17:29:18;7.82;;;6.00;;
29314;SDS011;16320;53.954;9.506;2023-09-07T17:32:23;7.10;;;6.40;;
29314;SDS011;16320;53.954;9.506;2023-09-07T17:35:34;12.82;;;6.60;;
29314;SDS011;16320;53.954;9.506;2023-09-07T17:38:40;8.60;;;6.20;;
29314;SDS011;16320;53.954;9.506;2023-09-07T17:41:45;9.70;;;6.28;;
29314;SDS011;16320;53.954;9.506;2023-09-07T17:44:49;7.75;;;5.97;;
29314;SDS011;16320;53.954;9.506;2023-09-07T17:47:54;10.02;;;6.38;;
29314;SDS011;16320;53.954;9.506;2023-09-07T17:50:59;10.73;;;6.47;;
29314;SDS011;16320;53.954;9.506;2023-09-07T17:54:03;10.60;;;7.13;;
29314;SDS011;16320;53.954;9.506;2023-09-07T17:57:07;13.55;;;7.10;;
29314;SDS011;16320;53.954;9.506;2023-09-07T18:00:11;10.90;;;7.20;;
29314;SDS011;16320;53.954;9.506;2023-09-07T18:03:16;11.48;;;7.03;;
29314;SDS011;16320;53.954;9.506;2023-09-07T18:06:21;9.88;;;7.35;;
29314;SDS011;16320;53.954;9.506;2023-09-07T18:09:26;9.55;;;8.40;;
29314;SDS011;16320;53.954;9.506;2023-09-07T18:12:30;11.63;;;8.02;;
29314;SDS011;16320;53.954;9.506;2023-09-07T18:15:35;9.43;;;7.55;;
29314;SDS011;16320;53.954;9.506;2023-09-07T18:18:39;10.35;;;8.20;;
29314;SDS011;16320;53.954;9.506;2023-09-07T18:21:44;16.23;;;8.70;;
29314;SDS011;16320;53.954;9.506;2023-09-07T18:24:49;13.00;;;9.43;;
29314;SDS011;16320;53.954;9.506;2023-09-07T18:27:53;11.65;;;8.30;;